Terminal Aerodrome Forecast
Issued by NWS

Home | Current Version | Previous Version | Text Only | Print | Product List | Glossary On
Versions: 1 2 3 4 5 6 7 8 9 10 11 12 13 14 15 16 17 18 19 20 21 22 23 24 25
000
FTUS45 KBYZ 231133
TAFLVM
TAF
KLVM 231133Z 2312/2412 23027G40KT P6SM SCT070 BKN100
     FM240000 24018G26KT P6SM BKN070=

USA.gov is the U.S. government's official web portal to all federal, state and local government web resources and services.